sensor_id;sensor_type;location;lat;lon;timestamp;P1;durP1;ratioP1;P2;durP2;ratioP2
51985;SDS011;38002;53.296;6.600;2023-02-26T00:03:20;4.10;;;1.33;;
51985;SDS011;38002;53.296;6.600;2023-02-26T00:08:20;3.42;;;0.63;;
51985;SDS011;38002;53.296;6.600;2023-02-26T00:13:21;1.45;;;0.63;;
51985;SDS011;38002;53.296;6.600;2023-02-26T00:18:22;7.60;;;0.65;;
51985;SDS011;38002;53.296;6.600;2023-02-26T00:23:22;5.45;;;0.88;;
51985;SDS011;38002;53.296;6.600;2023-02-26T00:28:23;4.32;;;0.63;;
51985;SDS011;38002;53.296;6.600;2023-02-26T00:33:24;4.78;;;1.25;;
51985;SDS011;38002;53.296;6.600;2023-02-26T00:38:25;1.77;;;0.40;;
51985;SDS011;38002;53.296;6.600;2023-02-26T00:43:30;1.27;;;0.85;;
51985;SDS011;38002;53.296;6.600;2023-02-26T00:59:20;0.75;;;0.40;;
51985;SDS011;38002;53.296;6.600;2023-02-26T01:04:22;0.63;;;0.60;;
51985;SDS011;38002;53.296;6.600;2023-02-26T01:09:30;3.60;;;2.58;;
51985;SDS011;38002;53.296;6.600;2023-02-26T01:14:35;2.10;;;0.50;;
51985;SDS011;38002;53.296;6.600;2023-02-26T01:25:05;0.50;;;0.30;;
51985;SDS011;38002;53.296;6.600;2023-02-26T01:30:11;2.17;;;0.47;;
51985;SDS011;38002;53.296;6.600;2023-02-26T01:35:16;0.80;;;0.30;;
51985;SDS011;38002;53.296;6.600;2023-02-26T01:40:27;0.75;;;0.60;;
51985;SDS011;38002;53.296;6.600;2023-02-26T01:45:35;4.83;;;1.03;;
51985;SDS011;38002;53.296;6.600;2023-02-26T01:50:54;0.40;;;0.40;;
51985;SDS011;38002;53.296;6.600;2023-02-26T01:56:02;4.18;;;0.50;;
51985;SDS011;38002;53.296;6.600;2023-02-26T02:01:08;2.15;;;0.65;;
51985;SDS011;38002;53.296;6.600;2023-02-26T02:06:10;2.28;;;0.52;;
51985;SDS011;38002;53.296;6.600;2023-02-26T02:11:16;3.60;;;0.50;;
51985;SDS011;38002;53.296;6.600;2023-02-26T02:32:09;4.30;;;0.63;;
51985;SDS011;38002;53.296;6.600;2023-02-26T02:37:18;5.25;;;0.93;;
51985;SDS011;38002;53.296;6.600;2023-02-26T02:42:29;3.10;;;0.57;;
51985;SDS011;38002;53.296;6.600;2023-02-26T02:47:35;3.58;;;0.70;;
51985;SDS011;38002;53.296;6.600;2023-02-26T02:52:44;4.18;;;0.55;;
51985;SDS011;38002;53.296;6.600;2023-02-26T02:57:54;0.60;;;0.40;;
51985;SDS011;38002;53.296;6.600;2023-02-26T03:03:14;3.00;;;0.52;;
51985;SDS011;38002;53.296;6.600;2023-02-26T03:08:20;0.30;;;0.30;;
51985;SDS011;38002;53.296;6.600;2023-02-26T03:13:23;3.13;;;0.50;;
51985;SDS011;38002;53.296;6.600;2023-02-26T03:34:36;2.53;;;0.57;;
51985;SDS011;38002;53.296;6.600;2023-02-26T03:39:44;10.00;;;0.70;;
51985;SDS011;38002;53.296;6.600;2023-02-26T03:44:53;6.88;;;0.60;;
51985;SDS011;38002;53.296;6.600;2023-02-26T03:55:09;3.08;;;0.85;;
51985;SDS011;38002;53.296;6.600;2023-02-26T04:00:15;2.47;;;0.65;;
51985;SDS011;38002;53.296;6.600;2023-02-26T04:05:17;1.00;;;0.32;;
51985;SDS011;38002;53.296;6.600;2023-02-26T04:10:21;3.67;;;0.75;;
51985;SDS011;38002;53.296;6.600;2023-02-26T04:15:28;4.50;;;0.68;;
51985;SDS011;38002;53.296;6.600;2023-02-26T04:20:29;2.50;;;0.70;;
51985;SDS011;38002;53.296;6.600;2023-02-26T04:25:29;1.00;;;0.38;;
51985;SDS011;38002;53.296;6.600;2023-02-26T04:30:30;1.48;;;0.30;;
51985;SDS011;38002;53.296;6.600;2023-02-26T04:35:30;5.15;;;0.55;;
51985;SDS011;38002;53.296;6.600;2023-02-26T04:40:31;2.47;;;0.52;;
51985;SDS011;38002;53.296;6.600;2023-02-26T04:45:31;0.77;;;0.60;;
51985;SDS011;38002;53.296;6.600;2023-02-26T04:50:31;1.20;;;0.30;;
51985;SDS011;38002;53.296;6.600;2023-02-26T04:55:33;0.47;;;0.30;;
51985;SDS011;38002;53.296;6.600;2023-02-26T05:00:34;1.95;;;0.60;;
51985;SDS011;38002;53.296;6.600;2023-02-26T05:05:35;1.92;;;0.40;;
51985;SDS011;38002;53.296;6.600;2023-02-26T05:10:36;3.60;;;0.22;;
51985;SDS011;38002;53.296;6.600;2023-02-26T05:15:37;3.08;;;0.93;;
51985;SDS011;38002;53.296;6.600;2023-02-26T05:20:37;0.35;;;0.35;;
51985;SDS011;38002;53.296;6.600;2023-02-26T05:25:38;2.47;;;0.45;;
51985;SDS011;38002;53.296;6.600;2023-02-26T05:30:39;1.27;;;0.40;;
51985;SDS011;38002;53.296;6.600;2023-02-26T05:35:40;0.77;;;0.37;;
51985;SDS011;38002;53.296;6.600;2023-02-26T05:40:40;1.98;;;0.65;;
51985;SDS011;38002;53.296;6.600;2023-02-26T05:45:41;0.30;;;0.30;;
51985;SDS011;38002;53.296;6.600;2023-02-26T05:50:41;1.92;;;0.75;;
51985;SDS011;38002;53.296;6.600;2023-02-26T05:55:41;5.18;;;0.70;;
51985;SDS011;38002;53.296;6.600;2023-02-26T06:00:42;0.30;;;0.30;;
51985;SDS011;38002;53.296;6.600;2023-02-26T06:05:42;2.88;;;0.57;;
51985;SDS011;38002;53.296;6.600;2023-02-26T06:10:43;6.57;;;0.73;;
51985;SDS011;38002;53.296;6.600;2023-02-26T06:15:44;5.18;;;0.45;;
51985;SDS011;38002;53.296;6.600;2023-02-26T06:20:44;3.45;;;0.60;;
51985;SDS011;38002;53.296;6.600;2023-02-26T06:25:44;2.50;;;0.50;;
51985;SDS011;38002;53.296;6.600;2023-02-26T06:30:45;5.25;;;0.75;;
51985;SDS011;38002;53.296;6.600;2023-02-26T06:35:46;0.75;;;0.63;;
51985;SDS011;38002;53.296;6.600;2023-02-26T06:40:46;0.60;;;0.60;;
51985;SDS011;38002;53.296;6.600;2023-02-26T06:45:47;2.67;;;0.57;;
51985;SDS011;38002;53.296;6.600;2023-02-26T06:50:48;1.05;;;0.68;;
51985;SDS011;38002;53.296;6.600;2023-02-26T06:55:49;4.68;;;0.50;;
51985;SDS011;38002;53.296;6.600;2023-02-26T07:00:51;1.23;;;0.50;;
51985;SDS011;38002;53.296;6.600;2023-02-26T07:05:51;3.97;;;0.65;;
51985;SDS011;38002;53.296;6.600;2023-02-26T07:10:52;0.47;;;0.47;;
51985;SDS011;38002;53.296;6.600;2023-02-26T07:15:52;2.17;;;1.05;;
51985;SDS011;38002;53.296;6.600;2023-02-26T07:20:53;1.85;;;0.95;;
51985;SDS011;38002;53.296;6.600;2023-02-26T07:25:53;4.00;;;2.50;;
51985;SDS011;38002;53.296;6.600;2023-02-26T07:30:55;2.72;;;2.35;;
51985;SDS011;38002;53.296;6.600;2023-02-26T07:35:56;8.60;;;2.80;;
51985;SDS011;38002;53.296;6.600;2023-02-26T07:40:57;8.18;;;2.08;;
51985;SDS011;38002;53.296;6.600;2023-02-26T07:45:57;2.75;;;1.33;;
51985;SDS011;38002;53.296;6.600;2023-02-26T07:50:58;2.70;;;1.65;;
51985;SDS011;38002;53.296;6.600;2023-02-26T07:55:58;4.10;;;1.30;;
51985;SDS011;38002;53.296;6.600;2023-02-26T08:00:59;3.33;;;1.40;;
51985;SDS011;38002;53.296;6.600;2023-02-26T08:05:59;0.88;;;0.88;;
51985;SDS011;38002;53.296;6.600;2023-02-26T08:11:00;1.88;;;0.80;;
51985;SDS011;38002;53.296;6.600;2023-02-26T08:16:01;4.03;;;0.55;;
51985;SDS011;38002;53.296;6.600;2023-02-26T08:21:01;3.67;;;1.02;;
51985;SDS011;38002;53.296;6.600;2023-02-26T08:26:06;1.38;;;0.52;;
51985;SDS011;38002;53.296;6.600;2023-02-26T08:31:09;0.30;;;0.30;;
51985;SDS011;38002;53.296;6.600;2023-02-26T08:36:10;1.00;;;0.50;;
51985;SDS011;38002;53.296;6.600;2023-02-26T08:41:11;10.43;;;1.15;;
51985;SDS011;38002;53.296;6.600;2023-02-26T08:46:12;0.55;;;0.30;;
51985;SDS011;38002;53.296;6.600;2023-02-26T08:51:12;2.33;;;0.68;;
51985;SDS011;38002;53.296;6.600;2023-02-26T08:56:13;1.52;;;0.45;;
51985;SDS011;38002;53.296;6.600;2023-02-26T09:01:13;0.32;;;0.30;;
51985;SDS011;38002;53.296;6.600;2023-02-26T09:06:14;1.73;;;0.55;;
51985;SDS011;38002;53.296;6.600;2023-02-26T09:11:15;2.33;;;0.60;;
51985;SDS011;38002;53.296;6.600;2023-02-26T09:16:15;2.90;;;0.63;;
51985;SDS011;38002;53.296;6.600;2023-02-26T09:21:16;0.95;;;0.50;;
51985;SDS011;38002;53.296;6.600;2023-02-26T09:26:16;0.77;;;0.32;;
51985;SDS011;38002;53.296;6.600;2023-02-26T09:31:17;1.67;;;0.35;;
51985;SDS011;38002;53.296;6.600;2023-02-26T09:36:18;3.53;;;0.55;;
51985;SDS011;38002;53.296;6.600;2023-02-26T09:41:20;3.05;;;0.80;;
51985;SDS011;38002;53.296;6.600;2023-02-26T09:51:29;2.10;;;0.40;;
51985;SDS011;38002;53.296;6.600;2023-02-26T09:56:32;5.70;;;0.80;;
51985;SDS011;38002;53.296;6.600;2023-02-26T10:17:22;0.68;;;0.40;;
51985;SDS011;38002;53.296;6.600;2023-02-26T10:22:32;2.42;;;0.40;;
51985;SDS011;38002;53.296;6.600;2023-02-26T10:27:51;3.20;;;0.38;;
51985;SDS011;38002;53.296;6.600;2023-02-26T10:33:03;1.95;;;0.40;;
51985;SDS011;38002;53.296;6.600;2023-02-26T10:38:15;3.58;;;0.60;;
51985;SDS011;38002;53.296;6.600;2023-02-26T10:54:15;4.85;;;0.60;;
51985;SDS011;38002;53.296;6.600;2023-02-26T10:59:23;4.90;;;0.50;;
51985;SDS011;38002;53.296;6.600;2023-02-26T11:04:24;5.22;;;0.60;;
51985;SDS011;38002;53.296;6.600;2023-02-26T11:14:31;0.75;;;0.40;;
51985;SDS011;38002;53.296;6.600;2023-02-26T11:24:39;6.70;;;0.73;;
51985;SDS011;38002;53.296;6.600;2023-02-26T11:29:46;3.25;;;0.63;;
51985;SDS011;38002;53.296;6.600;2023-02-26T11:34:52;2.08;;;0.93;;
51985;SDS011;38002;53.296;6.600;2023-02-26T11:39:58;3.83;;;0.68;;
51985;SDS011;38002;53.296;6.600;2023-02-26T11:45:04;3.67;;;0.30;;
51985;SDS011;38002;53.296;6.600;2023-02-26T11:50:12;1.55;;;0.35;;
51985;SDS011;38002;53.296;6.600;2023-02-26T11:55:19;3.15;;;0.45;;
51985;SDS011;38002;53.296;6.600;2023-02-26T12:00:34;1.75;;;0.73;;
51985;SDS011;38002;53.296;6.600;2023-02-26T12:05:37;6.35;;;0.82;;
51985;SDS011;38002;53.296;6.600;2023-02-26T13:08:53;1.20;;;0.47;;
51985;SDS011;38002;53.296;6.600;2023-02-26T13:19:34;2.47;;;0.80;;
51985;SDS011;38002;53.296;6.600;2023-02-26T13:30:02;7.43;;;0.70;;
51985;SDS011;38002;53.296;6.600;2023-02-26T13:56:15;4.75;;;0.90;;
51985;SDS011;38002;53.296;6.600;2023-02-26T14:01:32;3.92;;;0.65;;
51985;SDS011;38002;53.296;6.600;2023-02-26T14:06:39;1.60;;;0.50;;
51985;SDS011;38002;53.296;6.600;2023-02-26T14:11:44;3.75;;;0.77;;
51985;SDS011;38002;53.296;6.600;2023-02-26T14:27:33;6.30;;;0.68;;
51985;SDS011;38002;53.296;6.600;2023-02-26T14:38:00;3.20;;;0.85;;
51985;SDS011;38002;53.296;6.600;2023-02-26T14:43:04;5.70;;;0.82;;
51985;SDS011;38002;53.296;6.600;2023-02-26T14:48:12;1.55;;;0.88;;
51985;SDS011;38002;53.296;6.600;2023-02-26T15:25:04;1.88;;;0.60;;
51985;SDS011;38002;53.296;6.600;2023-02-26T15:30:14;1.48;;;0.68;;
51985;SDS011;38002;53.296;6.600;2023-02-26T15:35:17;3.05;;;0.90;;
51985;SDS011;38002;53.296;6.600;2023-02-26T15:40:20;2.92;;;0.52;;
51985;SDS011;38002;53.296;6.600;2023-02-26T15:45:43;2.38;;;0.63;;
51985;SDS011;38002;53.296;6.600;2023-02-26T15:50:51;4.47;;;0.50;;
51985;SDS011;38002;53.296;6.600;2023-02-26T15:55:53;6.20;;;1.33;;
51985;SDS011;38002;53.296;6.600;2023-02-26T16:00:59;5.60;;;0.82;;
51985;SDS011;38002;53.296;6.600;2023-02-26T16:06:00;3.08;;;0.70;;
51985;SDS011;38002;53.296;6.600;2023-02-26T16:11:01;2.80;;;0.73;;
51985;SDS011;38002;53.296;6.600;2023-02-26T16:16:06;1.95;;;1.10;;
51985;SDS011;38002;53.296;6.600;2023-02-26T16:21:16;3.80;;;1.10;;
51985;SDS011;38002;53.296;6.600;2023-02-26T16:31:27;1.65;;;0.63;;
51985;SDS011;38002;53.296;6.600;2023-02-26T16:36:36;2.10;;;0.93;;
51985;SDS011;38002;53.296;6.600;2023-02-26T16:41:39;4.28;;;0.85;;
51985;SDS011;38002;53.296;6.600;2023-02-26T16:46:41;1.73;;;1.00;;
51985;SDS011;38002;53.296;6.600;2023-02-26T16:51:44;1.30;;;1.00;;
51985;SDS011;38002;53.296;6.600;2023-02-26T16:56:47;4.90;;;0.70;;
51985;SDS011;38002;53.296;6.600;2023-02-26T17:07:05;1.83;;;0.60;;
51985;SDS011;38002;53.296;6.600;2023-02-26T17:12:22;5.65;;;2.03;;
51985;SDS011;38002;53.296;6.600;2023-02-26T17:17:28;4.75;;;0.90;;
51985;SDS011;38002;53.296;6.600;2023-02-26T17:22:28;2.75;;;0.68;;
51985;SDS011;38002;53.296;6.600;2023-02-26T17:27:30;3.22;;;0.95;;
51985;SDS011;38002;53.296;6.600;2023-02-26T17:32:35;6.22;;;0.77;;
51985;SDS011;38002;53.296;6.600;2023-02-26T17:37:35;2.03;;;0.82;;
51985;SDS011;38002;53.296;6.600;2023-02-26T17:42:36;2.47;;;0.90;;
51985;SDS011;38002;53.296;6.600;2023-02-26T17:47:37;4.88;;;1.10;;
51985;SDS011;38002;53.296;6.600;2023-02-26T17:52:37;2.00;;;1.00;;
51985;SDS011;38002;53.296;6.600;2023-02-26T17:57:38;4.88;;;1.13;;
51985;SDS011;38002;53.296;6.600;2023-02-26T18:02:38;2.83;;;0.98;;
51985;SDS011;38002;53.296;6.600;2023-02-26T18:07:38;1.23;;;0.70;;
51985;SDS011;38002;53.296;6.600;2023-02-26T18:12:39;2.25;;;0.65;;
51985;SDS011;38002;53.296;6.600;2023-02-26T18:17:40;5.07;;;1.48;;
51985;SDS011;38002;53.296;6.600;2023-02-26T18:22:42;4.25;;;0.80;;
51985;SDS011;38002;53.296;6.600;2023-02-26T18:27:43;4.50;;;0.70;;
51985;SDS011;38002;53.296;6.600;2023-02-26T18:32:43;1.30;;;0.90;;
51985;SDS011;38002;53.296;6.600;2023-02-26T18:37:44;3.00;;;0.55;;
51985;SDS011;38002;53.296;6.600;2023-02-26T18:42:45;6.25;;;1.13;;
51985;SDS011;38002;53.296;6.600;2023-02-26T18:47:46;1.33;;;0.57;;
51985;SDS011;38002;53.296;6.600;2023-02-26T18:52:47;7.40;;;0.97;;
51985;SDS011;38002;53.296;6.600;2023-02-26T18:57:47;0.70;;;0.68;;
51985;SDS011;38002;53.296;6.600;2023-02-26T19:02:48;3.17;;;0.70;;
51985;SDS011;38002;53.296;6.600;2023-02-26T19:07:49;9.70;;;0.80;;
51985;SDS011;38002;53.296;6.600;2023-02-26T19:12:50;0.80;;;0.65;;
51985;SDS011;38002;53.296;6.600;2023-02-26T19:17:51;0.57;;;0.57;;
51985;SDS011;38002;53.296;6.600;2023-02-26T19:22:51;1.45;;;0.73;;
51985;SDS011;38002;53.296;6.600;2023-02-26T19:27:52;3.10;;;0.75;;
51985;SDS011;38002;53.296;6.600;2023-02-26T19:32:53;6.50;;;1.27;;
51985;SDS011;38002;53.296;6.600;2023-02-26T19:37:54;4.85;;;1.00;;
51985;SDS011;38002;53.296;6.600;2023-02-26T19:42:54;3.97;;;1.60;;
51985;SDS011;38002;53.296;6.600;2023-02-26T19:47:55;2.83;;;1.38;;
51985;SDS011;38002;53.296;6.600;2023-02-26T19:52:55;4.72;;;1.90;;
51985;SDS011;38002;53.296;6.600;2023-02-26T19:57:57;2.85;;;1.83;;
51985;SDS011;38002;53.296;6.600;2023-02-26T20:02:57;4.93;;;1.73;;
51985;SDS011;38002;53.296;6.600;2023-02-26T20:07:58;1.92;;;1.33;;
51985;SDS011;38002;53.296;6.600;2023-02-26T20:12:58;3.65;;;1.40;;
51985;SDS011;38002;53.296;6.600;2023-02-26T20:17:59;2.00;;;1.60;;
51985;SDS011;38002;53.296;6.600;2023-02-26T20:23:00;5.57;;;1.60;;
51985;SDS011;38002;53.296;6.600;2023-02-26T20:28:01;2.85;;;1.30;;
51985;SDS011;38002;53.296;6.600;2023-02-26T20:33:02;9.70;;;1.30;;
51985;SDS011;38002;53.296;6.600;2023-02-26T20:38:02;1.45;;;1.35;;
51985;SDS011;38002;53.296;6.600;2023-02-26T20:43:03;1.95;;;1.52;;
51985;SDS011;38002;53.296;6.600;2023-02-26T20:48:04;6.53;;;2.05;;
51985;SDS011;38002;53.296;6.600;2023-02-26T20:53:06;2.47;;;1.45;;
51985;SDS011;38002;53.296;6.600;2023-02-26T20:58:07;5.63;;;1.92;;
51985;SDS011;38002;53.296;6.600;2023-02-26T21:03:08;1.38;;;1.27;;
51985;SDS011;38002;53.296;6.600;2023-02-26T21:08:08;6.90;;;2.03;;
51985;SDS011;38002;53.296;6.600;2023-02-26T21:13:09;4.78;;;2.22;;
51985;SDS011;38002;53.296;6.600;2023-02-26T21:18:10;5.88;;;3.00;;
51985;SDS011;38002;53.296;6.600;2023-02-26T21:23:10;7.20;;;2.08;;
51985;SDS011;38002;53.296;6.600;2023-02-26T21:28:11;4.47;;;2.00;;
51985;SDS011;38002;53.296;6.600;2023-02-26T21:33:11;7.18;;;2.92;;
51985;SDS011;38002;53.296;6.600;2023-02-26T21:38:12;5.10;;;3.13;;
51985;SDS011;38002;53.296;6.600;2023-02-26T21:43:13;8.55;;;4.32;;
51985;SDS011;38002;53.296;6.600;2023-02-26T21:48:13;11.60;;;4.55;;
51985;SDS011;38002;53.296;6.600;2023-02-26T21:53:14;5.40;;;4.10;;
51985;SDS011;38002;53.296;6.600;2023-02-26T21:58:14;6.35;;;2.92;;
51985;SDS011;38002;53.296;6.600;2023-02-26T22:03:15;4.82;;;3.00;;
51985;SDS011;38002;53.296;6.600;2023-02-26T22:08:16;8.63;;;3.00;;
51985;SDS011;38002;53.296;6.600;2023-02-26T22:13:16;3.85;;;2.85;;
51985;SDS011;38002;53.296;6.600;2023-02-26T22:18:17;2.35;;;2.15;;
51985;SDS011;38002;53.296;6.600;2023-02-26T22:23:17;3.85;;;3.10;;
51985;SDS011;38002;53.296;6.600;2023-02-26T22:28:18;13.02;;;5.13;;
51985;SDS011;38002;53.296;6.600;2023-02-26T22:33:18;6.93;;;3.88;;
51985;SDS011;38002;53.296;6.600;2023-02-26T22:38:19;8.45;;;4.00;;
51985;SDS011;38002;53.296;6.600;2023-02-26T22:43:19;9.30;;;3.33;;
51985;SDS011;38002;53.296;6.600;2023-02-26T22:48:20;6.88;;;3.50;;
51985;SDS011;38002;53.296;6.600;2023-02-26T22:53:20;3.92;;;2.42;;
51985;SDS011;38002;53.296;6.600;2023-02-26T22:58:21;7.57;;;2.67;;
51985;SDS011;38002;53.296;6.600;2023-02-26T23:03:21;7.50;;;2.33;;
51985;SDS011;38002;53.296;6.600;2023-02-26T23:08:22;2.72;;;2.03;;
51985;SDS011;38002;53.296;6.600;2023-02-26T23:13:23;3.63;;;2.30;;
51985;SDS011;38002;53.296;6.600;2023-02-26T23:18:23;6.18;;;2.28;;
51985;SDS011;38002;53.296;6.600;2023-02-26T23:23:24;4.07;;;1.75;;
51985;SDS011;38002;53.296;6.600;2023-02-26T23:28:24;4.35;;;1.83;;
51985;SDS011;38002;53.296;6.600;2023-02-26T23:33:25;4.80;;;1.95;;
51985;SDS011;38002;53.296;6.600;2023-02-26T23:38:25;2.67;;;1.55;;
51985;SDS011;38002;53.296;6.600;2023-02-26T23:43:26;2.75;;;2.05;;
51985;SDS011;38002;53.296;6.600;2023-02-26T23:48:26;4.30;;;2.20;;
51985;SDS011;38002;53.296;6.600;2023-02-26T23:53:27;3.78;;;2.25;;
51985;SDS011;38002;53.296;6.600;2023-02-26T23:58:28;5.60;;;2.70;;
